Time;durP1;ratioP1;P1;durP2;ratioP2;P2;SDS_P1;SDS_P2;PMS_P1;PMS_P2;Temp;Humidity;BMP_temperature;BMP_pressure;BME280_temperature;BME280_humidity;BME280_pressure;Samples;Min_cycle;Max_cycle;Signal;HPM_P1;HPM_P2
2023/12/20 00:01:59;;;;;;;77.75;36.22;;;8.20;96.70;;;;;;6158766;23;20479;-66
2023/12/20 00:04:31;;;;;;;80.75;35.70;;;8.20;96.70;;;;;;6160828;23;20047;-66
2023/12/20 00:10:49;;;;;;;70.53;34.65;;;8.20;96.70;;;;;;6183513;23;20029;-65
2023/12/20 00:13:54;;;;;;;;;;;;;;;;;;;;;
2023/12/20 00:16:46;;;;;;;70.03;33.53;;;8.20;96.70;;;;;;6182746;23;20024;-66
2023/12/20 00:19:15;;;;;;;69.72;34.83;;;8.20;96.70;;;;;;6183378;23;20094;-65
2023/12/20 00:22:04;;;;;;;75.32;33.92;;;8.20;96.70;;;;;;6159345;23;20024;-65
2023/12/20 00:24:34;;;;;;;73.30;33.10;;;8.20;96.70;;;;;;6159785;23;20024;-66
2023/12/20 00:27:27;;;;;;;69.10;33.45;;;8.20;96.70;;;;;;6238422;22;20099;-65
2023/12/20 00:29:58;;;;;;;63.90;33.05;;;8.20;96.70;;;;;;6213046;23;20094;-65
2023/12/20 00:32:27;;;;;;;65.80;32.42;;;8.10;96.70;;;;;;6213175;23;20028;-65
2023/12/20 00:35:23;;;;;;;69.00;33.28;;;8.10;96.70;;;;;;6213751;23;20028;-65
2023/12/20 00:37:52;;;;;;;63.40;30.90;;;8.10;96.70;;;;;;6238252;23;20358;-66
2023/12/20 00:41:18;;;;;;;61.83;31.05;;;8.10;96.70;;;;;;6213639;23;20067;-65
2023/12/20 00:45:30;;;;;;;56.80;28.98;;;8.10;96.70;;;;;;6130991;23;20126;-66
2023/12/20 00:52:18;;;;;;;51.85;27.70;;;8.10;96.70;;;;;;6207961;23;20017;-65
2023/12/20 00:54:53;;;;;;;52.50;27.35;;;8.10;96.70;;;;;;6207047;23;20078;-65
2023/12/20 00:57:25;;;;;;;51.13;27.90;;;8.20;96.70;;;;;;6182683;23;20028;-66
2023/12/20 01:01:32;;;;;;;;;;;;;;;;;;;;;
2023/12/20 01:04:49;;;;;;;49.92;27.42;;;8.20;96.70;;;;;;6208846;23;20027;-65
2023/12/20 01:07:36;;;;;;;55.75;29.75;;;8.20;96.70;;;;;;6185939;23;20099;-65
2023/12/20 01:10:08;;;;;;;51.08;28.33;;;8.10;96.70;;;;;;6183670;23;20063;-66
2023/12/20 01:12:40;;;;;;;50.47;28.92;;;8.10;96.70;;;;;;6182887;23;20024;-65
2023/12/20 01:15:43;;;;;;;48.15;28.67;;;8.20;96.70;;;;;;6159329;23;20063;-65
2023/12/20 01:18:38;;;;;;;52.33;29.00;;;8.10;96.70;;;;;;6197629;22;20020;-66
2023/12/20 01:21:07;;;;;;;52.22;28.45;;;8.10;96.70;;;;;;6221870;22;20093;-65
2023/12/20 01:23:36;;;;;;;53.00;29.10;;;8.00;96.70;;;;;;6221852;22;20023;-65
2023/12/20 01:26:08;;;;;;;51.03;29.45;;;8.00;96.70;;;;;;6222313;22;20030;-66
2023/12/20 01:28:48;;;;;;;52.72;29.55;;;8.10;96.70;;;;;;6224777;22;20019;-66
2023/12/20 01:31:17;;;;;;;57.15;31.30;;;8.00;96.70;;;;;;6197407;22;20024;-65
2023/12/20 01:33:50;;;;;;;51.72;29.58;;;8.00;96.70;;;;;;6246953;22;20019;-66
2023/12/20 01:36:58;;;;;;;48.70;28.23;;;8.00;96.70;;;;;;6203380;22;20111;-65
2023/12/20 01:39:28;;;;;;;45.72;28.17;;;8.00;96.70;;;;;;6247008;22;20099;-65
2023/12/20 01:45:35;;;;;;;51.42;30.05;;;7.90;96.70;;;;;;6178425;22;20028;-66
2023/12/20 01:48:06;;;;;;;44.60;27.52;;;8.00;96.70;;;;;;6221655;22;20026;-66
2023/12/20 01:50:37;;;;;;;48.53;27.65;;;8.00;96.70;;;;;;6221287;22;20034;-66
2023/12/20 01:53:09;;;;;;;45.20;27.23;;;8.00;96.70;;;;;;6221580;22;20058;-66
2023/12/20 01:56:17;;;;;;;45.05;26.67;;;8.10;96.70;;;;;;6235963;22;20034;-65
2023/12/20 01:58:48;;;;;;;44.28;26.52;;;8.10;96.70;;;;;;6221307;22;20482;-66
2023/12/20 02:01:30;;;;;;;;;;;;;;;;;;;;;
2023/12/20 02:04:14;;;;;;;38.03;23.83;;;8.10;96.70;;;;;;6271789;22;20051;-66
2023/12/20 02:06:43;;;;;;;41.65;25.25;;;8.10;96.70;;;;;;6222006;22;20034;-65
2023/12/20 02:09:17;;;;;;;38.58;24.38;;;8.10;96.70;;;;;;6223956;22;20042;-66
2023/12/20 02:12:33;;;;;;;;;;;;;;;;;;;;;
2023/12/20 02:15:43;;;;;;;39.58;24.25;;;8.00;96.70;;;;;;6273304;22;20755;-66
2023/12/20 02:22:55;;;;;;;39.97;24.45;;;7.90;96.70;;;;;;6204347;22;20014;-65
2023/12/20 02:28:41;;;;;;;39.58;25.38;;;7.80;96.70;;;;;;6246305;22;20024;-65
2023/12/20 02:31:11;;;;;;;39.78;26.27;;;7.80;96.70;;;;;;6244414;22;20174;-66
2023/12/20 02:34:13;;;;;;;35.05;23.23;;;7.80;96.70;;;;;;6219660;22;20019;-65
2023/12/20 02:36:43;;;;;;;37.90;24.70;;;7.80;96.70;;;;;;6240084;22;20031;-65
2023/12/20 02:40:04;;;;;;;39.00;24.00;;;7.80;96.70;;;;;;6134315;23;21293;-65
2023/12/20 02:45:54;;;;;;;33.78;22.88;;;7.80;96.70;;;;;;6248503;22;20032;-66
2023/12/20 02:49:08;;;;;;;33.65;23.05;;;7.70;96.70;;;;;;6133893;23;20052;-65
2023/12/20 02:51:40;;;;;;;32.60;24.02;;;7.70;96.70;;;;;;6154146;23;20064;-65
2023/12/20 02:54:56;;;;;;;;;;;;;;;;;;;;;
2023/12/20 02:57:33;;;;;;;35.47;23.67;;;7.70;96.70;;;;;;6114044;23;20541;-65
2023/12/20 03:00:29;;;;;;;35.45;23.60;;;7.70;96.70;;;;;;6179265;23;20044;-66
2023/12/20 03:06:52;;;;;;;34.65;22.92;;;7.70;96.70;;;;;;6154060;23;20154;-66
2023/12/20 03:09:23;;;;;;;35.00;23.88;;;7.70;96.70;;;;;;6154474;23;20031;-65
2023/12/20 03:12:19;;;;;;;41.78;26.00;;;7.60;96.70;;;;;;6163417;22;20023;-66
2023/12/20 03:14:51;;;;;;;38.10;24.27;;;7.60;96.70;;;;;;6246184;22;20024;-65
2023/12/20 03:17:21;;;;;;;37.72;25.52;;;7.60;96.70;;;;;;6221951;22;20089;-66
2023/12/20 03:19:50;;;;;;;31.75;23.58;;;7.60;96.70;;;;;;6222147;22;20023;-66
2023/12/20 03:22:19;;;;;;;36.42;24.48;;;7.60;96.70;;;;;;6247039;22;20023;-65
2023/12/20 03:29:54;;;;;;;34.83;24.25;;;7.60;96.70;;;;;;6146439;23;20045;-66
2023/12/20 03:33:08;;;;;;;35.08;24.83;;;7.70;96.70;;;;;;6123840;23;20026;-65
2023/12/20 03:35:38;;;;;;;34.70;23.63;;;7.70;96.70;;;;;;6122396;23;20031;-66
2023/12/20 03:38:15;;;;;;;32.88;24.17;;;7.80;96.70;;;;;;6100832;23;20045;-65
2023/12/20 03:40:48;;;;;;;38.03;25.48;;;7.80;96.70;;;;;;6100209;23;20031;-66
2023/12/20 03:43:17;;;;;;;36.80;25.23;;;7.90;96.70;;;;;;6248803;22;20019;-65
2023/12/20 03:45:46;;;;;;;34.88;24.80;;;7.80;96.70;;;;;;6245707;22;20023;-66
2023/12/20 03:48:28;;;;;;;39.92;26.20;;;7.90;96.70;;;;;;6248278;22;20394;-66
2023/12/20 03:50:57;;;;;;;33.33;23.65;;;7.90;96.70;;;;;;6220930;22;20043;-65
2023/12/20 03:53:26;;;;;;;32.53;24.02;;;7.90;96.70;;;;;;6221141;22;20340;-66
2023/12/20 03:56:07;;;;;;;31.77;23.75;;;7.90;96.70;;;;;;6226173;22;20509;-65
2023/12/20 03:58:37;;;;;;;37.38;24.73;;;8.00;96.70;;;;;;6212963;22;20015;-66
2023/12/20 04:01:13;;;;;;;34.05;23.02;;;7.90;96.70;;;;;;6245656;22;20023;-65
2023/12/20 04:03:50;;;;;;;31.60;23.13;;;7.90;96.70;;;;;;6220544;22;20023;-65
2023/12/20 04:06:30;;;;;;;32.30;22.95;;;7.90;96.70;;;;;;6248496;22;20537;-66
2023/12/20 04:08:59;;;;;;;33.85;23.60;;;7.90;96.70;;;;;;6221829;22;20016;-65
2023/12/20 04:12:35;;;;;;;36.77;25.03;;;7.90;96.70;;;;;;6241919;22;20787;-66
2023/12/20 04:15:08;;;;;;;35.72;23.73;;;7.90;96.70;;;;;;6220917;22;20070;-65
2023/12/20 04:22:27;;;;;;;34.53;23.02;;;7.90;96.70;;;;;;6272897;22;20563;-65
2023/12/20 04:25:24;;;;;;;33.85;24.15;;;8.00;96.70;;;;;;6230467;22;20030;-65
2023/12/20 04:28:33;;;;;;;;;;;;;;;;;;;;;
2023/12/20 04:32:27;;;;;;;34.40;22.73;;;8.00;96.70;;;;;;6273274;22;20196;-66
2023/12/20 04:36:17;;;;;;;;;;;;;;;;;;;;;
2023/12/20 04:39:47;;;;;;;;;;;;;;;;;;;;;
2023/12/20 04:47:19;;;;;;;30.48;21.50;;;7.90;96.70;;;;;;6046565;23;20022;-66
2023/12/20 04:51:20;;;;;;;;;;;;;;;;;;;;;
2023/12/20 04:55:00;;;;;;;32.67;23.75;;;7.90;96.70;;;;;;6052300;23;20582;-66
2023/12/20 04:58:20;;;;;;;32.15;22.33;;;7.90;96.70;;;;;;6048129;23;20033;-65
2023/12/20 05:01:31;;;;;;;;;;;;;;;;;;;;;
2023/12/20 05:05:18;;;;;;;31.33;21.88;;;7.80;96.70;;;;;;6146315;23;20064;-65
2023/12/20 05:11:56;;;;;;;31.63;21.63;;;7.80;96.70;;;;;;6094285;23;20108;-65
2023/12/20 05:15:11;;;;;;;29.73;21.63;;;7.80;96.70;;;;;;5978420;23;20093;-65
2023/12/20 05:21:43;;;;;;;28.90;21.00;;;7.70;96.70;;;;;;5955656;23;20032;-65
2023/12/20 05:32:25;;;;;;;27.50;20.00;;;7.80;96.70;;;;;;6013354;23;20038;-65
2023/12/20 05:34:54;;;;;;;28.42;19.80;;;7.70;96.70;;;;;;6013520;23;20035;-64
2023/12/20 05:46:49;;;;;;;24.95;16.08;;;7.80;96.70;;;;;;5945244;23;20043;-65
2023/12/20 06:05:35;;;;;;;27.65;16.58;;;7.70;96.70;;;;;;6120614;23;20061;-65
2023/12/20 06:08:31;;;;;;;28.10;16.90;;;7.80;96.70;;;;;;6131743;23;20020;-65
2023/12/20 06:11:05;;;;;;;29.13;18.52;;;7.80;96.70;;;;;;6216395;23;20082;-65
2023/12/20 06:33:57;;;;;;;;;;;;;;;;;;;;;
2023/12/20 06:36:27;;;;;;;37.50;20.73;;;7.80;96.70;;;;;;6009703;23;20409;-65
2023/12/20 06:39:16;;;;;;;38.55;21.38;;;7.90;96.70;;;;;;6018524;23;20454;-65
2023/12/20 06:50:20;;;;;;;33.35;20.50;;;7.90;96.70;;;;;;6091120;23;20084;-65
2023/12/20 07:11:19;;;;;;;33.03;18.80;;;8.00;96.70;;;;;;6242156;23;20108;-65
2023/12/20 07:13:49;;;;;;;29.48;18.50;;;8.00;96.70;;;;;;6190510;23;20020;-65
2023/12/20 07:16:22;;;;;;;34.90;21.75;;;8.00;96.70;;;;;;6166539;23;20051;-65
2023/12/20 07:19:30;;;;;;;38.50;22.00;;;8.10;96.70;;;;;;6223833;23;20035;-66
2023/12/20 07:26:21;;;;;;;38.00;21.92;;;8.10;96.70;;;;;;6214181;23;20431;-65
2023/12/20 07:28:53;;;;;;;39.25;22.17;;;8.10;96.70;;;;;;6182652;23;20020;-65
2023/12/20 07:31:47;;;;;;;40.78;23.45;;;8.10;96.70;;;;;;6196773;23;20095;-64
2023/12/20 07:38:44;;;;;;;34.35;22.08;;;8.10;96.70;;;;;;6214794;23;20030;-65
2023/12/20 07:42:05;;;;;;;39.17;22.45;;;8.20;96.70;;;;;;6155572;22;20101;-66
2023/12/20 07:44:35;;;;;;;35.65;21.98;;;8.20;96.70;;;;;;6240011;23;20024;-65
2023/12/20 07:48:02;;;;;;;38.55;22.20;;;8.20;96.70;;;;;;6156847;22;20098;-65
2023/12/20 07:52:22;;;;;;;32.83;21.15;;;8.30;96.70;;;;;;6117775;23;20057;-65
2023/12/20 07:54:51;;;;;;;33.42;20.52;;;8.30;96.70;;;;;;6121433;22;20077;-65
2023/12/20 08:15:26;;;;;;;;;;;;;;;;;;;;;
2023/12/20 08:18:37;;;;;;;33.20;20.30;;;8.70;96.70;;;;;;6094507;23;20314;-65
2023/12/20 08:21:19;;;;;;;34.22;21.23;;;8.90;96.70;;;;;;6119017;23;20101;-65
2023/12/20 08:25:38;;;;;;;37.78;22.95;;;8.90;96.70;;;;;;5960461;23;20043;-65
2023/12/20 08:28:39;;;;;;;33.55;20.38;;;9.00;96.70;;;;;;6175649;22;20494;-66
2023/12/20 08:43:07;;;;;;;38.70;23.08;;;9.00;96.70;;;;;;6180727;23;20064;-65
2023/12/20 08:50:32;;;;;;;31.85;19.02;;;9.10;96.70;;;;;;6150397;23;20040;-65
2023/12/20 08:53:02;;;;;;;32.22;20.05;;;9.10;96.70;;;;;;6123579;23;20591;-65
2023/12/20 08:55:33;;;;;;;28.83;18.65;;;9.20;96.70;;;;;;6126099;23;20033;-65
2023/12/20 08:58:16;;;;;;;29.98;18.02;;;9.20;96.70;;;;;;6128614;23;20579;-65
2023/12/20 09:04:52;;;;;;;31.85;18.50;;;9.20;96.70;;;;;;6074875;23;20052;-65
2023/12/20 09:08:10;;;;;;;34.60;19.27;;;9.20;96.70;;;;;;6125842;23;20025;-65
2023/12/20 09:11:18;;;;;;;33.77;19.03;;;9.20;96.70;;;;;;6101166;23;20025;-65
2023/12/20 09:18:36;;;;;;;35.55;22.08;;;9.20;96.70;;;;;;6103488;23;20216;-65
2023/12/20 09:21:09;;;;;;;33.13;20.33;;;9.20;96.70;;;;;;6155166;23;20103;-65
2023/12/20 09:27:49;;;;;;;33.13;20.02;;;9.20;96.70;;;;;;6207671;23;20042;-65
2023/12/20 09:34:14;;;;;;;31.45;20.17;;;9.30;96.70;;;;;;6238120;22;20031;-65
2023/12/20 09:45:48;;;;;;;;;;;;;;;;;;;;;
2023/12/20 09:49:21;;;;;;;29.55;18.63;;;9.50;96.70;;;;;;6192757;23;20039;-66
2023/12/20 09:56:18;;;;;;;27.05;18.15;;;9.60;96.70;;;;;;6091181;23;20041;-65
2023/12/20 09:58:47;;;;;;;26.33;17.25;;;9.70;96.70;;;;;;6228447;22;20020;-66
2023/12/20 10:01:27;;;;;;;;;;;;;;;;;;;;;
2023/12/20 10:04:40;;;;;;;29.90;18.85;;;9.70;96.70;;;;;;6242418;23;20027;-65
2023/12/20 10:07:10;;;;;;;28.73;18.17;;;9.70;96.70;;;;;;6216867;23;20485;-66
2023/12/20 10:09:47;;;;;;;24.67;17.05;;;9.70;96.70;;;;;;6193706;23;20020;-66
2023/12/20 10:16:00;;;;;;;25.52;17.02;;;9.70;96.70;;;;;;6240943;23;20061;-65
2023/12/20 10:18:31;;;;;;;25.90;16.67;;;9.70;96.70;;;;;;6216401;23;20032;-65
2023/12/20 10:21:11;;;;;;;;;;;9.70;96.70;;;;;;6195733;23;20411;-65
2023/12/20 10:23:51;;;;;;;;;;;;;;;;;;;;;
2023/12/20 10:27:09;;;;;;;25.92;17.08;;;9.70;96.70;;;;;;6243015;23;20077;-65
2023/12/20 10:29:40;;;;;;;26.08;17.30;;;9.70;96.70;;;;;;6216411;23;20027;-65
2023/12/20 10:45:52;;;;;;;27.75;17.30;;;9.70;96.70;;;;;;6178837;23;20008;-64
2023/12/20 10:48:22;;;;;;;25.92;16.45;;;9.80;96.70;;;;;;6172803;23;20427;-65
2023/12/20 10:50:58;;;;;;;23.98;16.83;;;9.80;96.70;;;;;;6124954;23;20200;-65
2023/12/20 10:53:28;;;;;;;28.10;17.63;;;9.80;96.70;;;;;;6202277;23;20054;-65
2023/12/20 10:56:50;;;;;;;27.50;17.48;;;9.80;96.70;;;;;;6174355;22;20516;-65
2023/12/20 11:00:24;;;;;;;25.25;17.08;;;9.80;96.70;;;;;;6149994;23;20042;-65
2023/12/20 11:03:39;;;;;;;27.73;16.65;;;9.90;96.70;;;;;;6224077;23;20074;-65
2023/12/20 11:15:51;;;;;;;;;;;;;;;;;;;;;
2023/12/20 11:18:31;;;;;;;31.20;19.45;;;10.20;96.70;;;;;;6242044;23;20479;-65
2023/12/20 11:25:18;;;;;;;;;;;;;;;;;;;;;
2023/12/20 11:38:19;;;;;;;32.28;20.58;;;10.20;96.70;;;;;;6178893;23;20490;-65
2023/12/20 11:46:38;;;;;;;32.30;19.50;;;10.10;96.70;;;;;;6178983;23;20035;-65
2023/12/20 12:06:04;;;;;;;28.88;17.35;;;10.00;96.70;;;;;;6008667;23;20027;-65
2023/12/20 12:09:50;;;;;;;28.38;18.90;;;10.00;96.70;;;;;;6148692;23;20104;-65
2023/12/20 12:12:57;;;;;;;28.60;18.20;;;10.10;96.70;;;;;;6135247;23;20462;-65
2023/12/20 12:29:12;;;;;;;18.45;13.07;;;10.20;96.70;;;;;;6208252;23;20335;-65
2023/12/20 12:31:43;;;;;;;18.05;12.80;;;10.20;96.70;;;;;;6158736;23;20020;-65
2023/12/20 12:39:02;;;;;;;18.17;12.70;;;10.10;96.70;;;;;;6094766;23;20042;-65
2023/12/20 12:58:54;;;;;;;19.63;14.38;;;10.50;96.70;;;;;;6062783;23;20077;-64
2023/12/20 13:01:23;;;;;;;24.25;15.63;;;10.50;96.70;;;;;;6093563;23;20044;-65
2023/12/20 13:08:37;;;;;;;21.65;15.60;;;10.60;96.70;;;;;;6123396;23;20412;-65
2023/12/20 13:11:12;;;;;;;23.17;16.10;;;10.60;96.70;;;;;;6125774;23;20376;-64
2023/12/20 13:13:45;;;;;;;22.98;16.55;;;10.60;96.70;;;;;;6125242;23;20068;-64
2023/12/20 13:16:16;;;;;;;23.73;16.85;;;10.70;96.70;;;;;;6125683;23;20029;-64
2023/12/20 13:23:01;;;;;;;21.25;14.80;;;10.70;96.70;;;;;;6221591;23;20027;-64
2023/12/20 13:25:31;;;;;;;19.73;13.30;;;10.60;96.70;;;;;;6191520;23;20087;-65
2023/12/20 13:28:00;;;;;;;20.85;14.80;;;10.60;96.70;;;;;;6216801;23;20522;-65
2023/12/20 13:30:29;;;;;;;19.15;14.15;;;10.60;96.70;;;;;;6191546;23;20409;-64
2023/12/20 13:33:00;;;;;;;19.88;14.05;;;10.60;96.70;;;;;;6191429;23;20039;-64
2023/12/20 13:35:29;;;;;;;19.42;13.73;;;10.50;96.70;;;;;;6191186;23;20051;-65
2023/12/20 13:50:29;;;;;;;17.73;12.50;;;10.20;96.70;;;;;;6243438;22;20108;-65
2023/12/20 13:53:21;;;;;;;23.48;15.02;;;10.10;96.70;;;;;;6192542;23;20020;-64
2023/12/20 13:56:29;;;;;;;18.92;13.43;;;10.10;96.70;;;;;;6090493;23;20037;-64
2023/12/20 13:58:59;;;;;;;17.83;12.63;;;10.10;96.70;;;;;;6097003;23;20033;-64
2023/12/20 14:05:37;;;;;;;23.27;16.17;;;10.10;96.70;;;;;;6095955;23;20082;-65
2023/12/20 14:08:09;;;;;;;24.30;16.42;;;10.10;96.70;;;;;;6096911;23;20022;-64
2023/12/20 14:20:20;;;;;;;21.75;16.42;;;9.90;96.70;;;;;;6120395;23;20029;-64
2023/12/20 14:22:52;;;;;;;28.63;18.35;;;9.90;96.70;;;;;;6096730;23;20495;-64
2023/12/20 14:29:11;;;;;;;;;;;9.90;96.70;;;;;;6105961;23;20032;-64
2023/12/20 14:36:03;;;;;;;;;;;;;;;;;;;;;
2023/12/20 14:43:55;;;;;;;;;;;;;;;;;;;;;
2023/12/20 14:47:10;;;;;;;20.98;15.73;;;9.70;96.70;;;;;;6130781;23;20156;-65
2023/12/20 15:04:31;;;;;;;26.08;16.23;;;9.60;96.70;;;;;;6119719;23;20061;-65
2023/12/20 15:07:24;;;;;;;22.45;15.40;;;9.60;96.70;;;;;;6120188;23;20044;-64
2023/12/20 15:09:56;;;;;;;19.98;15.48;;;9.60;96.70;;;;;;6088808;23;20026;-65
2023/12/20 15:12:26;;;;;;;21.38;16.30;;;9.60;96.70;;;;;;6130531;23;20096;-65
2023/12/20 15:20:24;;;;;;;21.23;15.52;;;9.50;96.70;;;;;;6178907;23;20011;-64
2023/12/20 15:32:20;;;;;;;21.00;14.88;;;9.40;96.70;;;;;;6241558;23;20051;-64
2023/12/20 15:35:31;;;;;;;20.80;15.55;;;9.30;96.70;;;;;;6212666;23;20039;-65
2023/12/20 15:51:56;;;;;;;25.95;16.65;;;9.20;96.70;;;;;;6245233;22;20394;-64
2023/12/20 15:54:26;;;;;;;22.27;15.52;;;9.20;96.70;;;;;;6215611;23;20028;-64
2023/12/20 15:58:21;;;;;;;22.40;15.02;;;9.20;96.70;;;;;;6131313;23;20157;-65
2023/12/20 16:04:50;;;;;;;21.33;15.02;;;9.10;96.70;;;;;;6215250;23;20047;-65
2023/12/20 16:07:23;;;;;;;29.75;22.05;;;9.10;96.70;;;;;;6124848;23;20047;-64
2023/12/20 16:10:02;;;;;;;;;;;;;;;;;;;;;
2023/12/20 16:17:35;;;;;;;29.85;19.63;;;9.10;96.70;;;;;;6147946;23;20015;-64
2023/12/20 16:26:07;;;;;;;;;;;;;;;;;;;;;
2023/12/20 16:29:22;;;;;;;34.65;24.25;;;9.00;96.70;;;;;;6148351;23;20096;-64
2023/12/20 16:36:12;;;;;;;38.22;23.65;;;9.00;96.70;;;;;;6148366;23;20085;-64
2023/12/20 16:40:15;;;;;;;31.52;21.17;;;9.00;96.70;;;;;;6060047;23;20041;-64
2023/12/20 16:55:43;;;;;;;;;;;;;;;;;;;;;
2023/12/20 16:58:14;;;;;;;32.88;24.23;;;8.70;96.70;;;;;;6216867;23;20485;-64
2023/12/20 17:00:46;;;;;;;35.10;25.63;;;8.70;96.70;;;;;;6213131;23;20470;-64
2023/12/20 17:23:28;;;;;;;32.38;21.30;;;8.60;96.70;;;;;;6150035;23;20056;-64
2023/12/20 17:26:20;;;;;;;42.42;26.95;;;8.50;96.70;;;;;;6150411;23;20505;-64
2023/12/20 17:28:50;;;;;;;37.90;25.48;;;8.50;96.70;;;;;;6156424;23;20556;-64
2023/12/20 17:37:27;;;;;;;36.95;24.33;;;8.40;96.70;;;;;;6221467;23;20047;-64
2023/12/20 18:07:08;;;;;;;43.60;28.60;;;8.30;96.70;;;;;;5949064;24;20019;-63
2023/12/20 18:14:34;;;;;;;44.22;29.85;;;8.30;96.70;;;;;;5868782;24;20114;-63
2023/12/20 18:25:29;;;;;;;;;;;8.20;96.70;;;;;;5872038;24;20485;-65
2023/12/20 18:27:55;;;;;;;59.47;40.20;;;8.20;96.70;;;;;;5893805;24;20495;-66
2023/12/20 18:30:26;;;;;;;;;;;8.20;96.70;;;;;;5871752;24;20430;-66
2023/12/20 18:32:55;;;;;;;52.25;34.45;;;8.10;96.70;;;;;;5822591;24;20462;-65
2023/12/20 18:35:24;;;;;;;49.33;33.78;;;8.10;96.70;;;;;;5866740;24;20029;-65
2023/12/20 18:37:52;;;;;;;42.50;30.20;;;8.10;96.70;;;;;;5878981;24;20114;-65
2023/12/20 18:40:22;;;;;;;47.38;31.90;;;8.00;96.70;;;;;;5938914;23;20060;-66
2023/12/20 18:42:51;;;;;;;45.65;31.73;;;8.00;96.70;;;;;;6066103;23;20113;-66
2023/12/20 18:45:19;;;;;;;47.38;30.92;;;8.10;96.70;;;;;;6065925;23;20517;-66
2023/12/20 18:47:48;;;;;;;41.15;28.98;;;8.10;96.70;;;;;;6042787;23;20037;-65
2023/12/20 18:50:18;;;;;;;37.60;26.23;;;8.00;96.70;;;;;;6114273;23;20025;-66
2023/12/20 18:52:47;;;;;;;39.33;25.48;;;7.90;96.70;;;;;;6149390;23;20096;-66
2023/12/20 18:55:15;;;;;;;39.92;27.20;;;7.80;96.70;;;;;;6100562;23;20025;-67
2023/12/20 18:57:44;;;;;;;44.70;31.98;;;7.70;96.70;;;;;;6101015;23;20068;-67
2023/12/20 19:00:14;;;;;;;49.17;32.28;;;7.70;96.70;;;;;;6100443;23;20109;-67
2023/12/20 19:02:44;;;;;;;53.83;32.92;;;7.70;96.70;;;;;;6100159;23;20100;-67
2023/12/20 19:05:13;;;;;;;44.50;30.55;;;7.70;96.70;;;;;;6209749;23;20075;-67
2023/12/20 19:07:52;;;;;;;40.35;28.67;;;7.70;96.70;;;;;;6163245;23;20075;-67
2023/12/20 19:10:21;;;;;;;43.47;29.10;;;7.70;96.70;;;;;;6185485;23;20024;-66
2023/12/20 19:12:53;;;;;;;50.38;31.77;;;7.70;96.70;;;;;;6210868;23;20108;-67
2023/12/20 19:15:21;;;;;;;92.75;63.83;;;7.70;96.70;;;;;;6186114;23;20048;-66
2023/12/20 19:17:50;;;;;;;128.77;83.53;;;7.70;96.70;;;;;;6184210;23;20024;-66
2023/12/20 19:20:20;;;;;;;70.93;46.40;;;7.70;96.70;;;;;;6161110;23;20027;-65
2023/12/20 19:22:51;;;;;;;66.43;45.33;;;7.60;96.70;;;;;;6186419;23;20054;-66
2023/12/20 19:25:20;;;;;;;62.38;42.75;;;7.60;96.70;;;;;;6185004;23;20463;-66
2023/12/20 19:27:48;;;;;;;56.88;38.08;;;7.70;96.70;;;;;;6185404;23;20112;-66
2023/12/20 19:30:17;;;;;;;54.85;37.20;;;7.60;96.70;;;;;;6209717;23;20048;-67
2023/12/20 19:32:45;;;;;;;47.85;32.63;;;7.60;96.70;;;;;;6184343;23;20051;-67
2023/12/20 19:35:14;;;;;;;47.80;32.00;;;7.60;96.70;;;;;;6185165;23;20044;-66
2023/12/20 19:37:43;;;;;;;47.47;32.30;;;7.60;96.70;;;;;;6210429;23;20397;-66
2023/12/20 19:40:14;;;;;;;46.47;33.05;;;7.60;96.70;;;;;;6209470;23;20024;-67
2023/12/20 19:42:43;;;;;;;46.72;33.33;;;7.50;96.70;;;;;;6160570;23;20099;-66
2023/12/20 19:45:14;;;;;;;51.00;34.10;;;7.50;96.70;;;;;;6160453;23;20024;-65
2023/12/20 19:47:49;;;;;;;47.20;32.88;;;7.50;96.70;;;;;;6185468;23;20052;-65
2023/12/20 19:50:19;;;;;;;45.20;32.10;;;7.40;96.70;;;;;;6210128;23;20535;-67
2023/12/20 19:52:48;;;;;;;41.65;29.08;;;7.30;96.70;;;;;;6184604;23;20078;-68
2023/12/20 19:55:21;;;;;;;37.25;27.73;;;7.20;96.70;;;;;;6185365;23;20039;-65
2023/12/20 19:57:55;;;;;;;42.28;26.65;;;7.10;96.70;;;;;;6185170;23;20030;-66
2023/12/20 20:00:24;;;;;;;35.67;24.70;;;7.10;96.70;;;;;;6210151;23;20355;-66
2023/12/20 20:02:54;;;;;;;34.63;24.23;;;7.00;96.70;;;;;;6185151;23;20070;-67
2023/12/20 20:05:25;;;;;;;35.63;25.80;;;7.00;96.70;;;;;;6160032;23;20021;-66
2023/12/20 20:07:54;;;;;;;34.00;24.35;;;6.90;96.70;;;;;;6210882;23;20024;-65
2023/12/20 20:10:24;;;;;;;36.42;26.95;;;6.90;96.70;;;;;;6185475;23;20035;-65
2023/12/20 20:12:53;;;;;;;36.83;26.73;;;7.00;96.70;;;;;;6185691;23;20075;-65
2023/12/20 20:15:21;;;;;;;30.55;23.15;;;7.00;96.70;;;;;;6185467;23;20036;-66
2023/12/20 20:17:50;;;;;;;36.38;24.30;;;7.00;96.70;;;;;;6184833;23;20059;-65
2023/12/20 20:20:19;;;;;;;34.40;24.02;;;6.90;96.70;;;;;;6186333;23;20028;-65
2023/12/20 20:22:48;;;;;;;42.22;29.08;;;6.90;96.70;;;;;;6188799;23;20025;-66
2023/12/20 20:25:26;;;;;;;43.33;30.98;;;6.90;96.70;;;;;;6188144;23;20078;-65
2023/12/20 20:28:28;;;;;;;42.63;30.50;;;7.00;96.70;;;;;;6188821;23;20661;-64
2023/12/20 20:31:58;;;;;;;42.92;30.20;;;7.00;96.70;;;;;;6142375;23;20078;-66
2023/12/20 20:34:39;;;;;;;42.55;28.40;;;7.00;96.70;;;;;;6193848;23;20070;-65
2023/12/20 20:37:35;;;;;;;41.15;29.13;;;7.00;96.70;;;;;;6166585;23;20486;-65
2023/12/20 20:40:05;;;;;;;43.47;28.02;;;7.00;96.70;;;;;;6188808;23;20063;-64
2023/12/20 20:42:34;;;;;;;41.47;29.10;;;7.00;96.70;;;;;;6207927;23;20023;-64
2023/12/20 20:45:36;;;;;;;45.13;29.45;;;7.00;96.70;;;;;;6213411;23;20021;-64
2023/12/20 20:48:06;;;;;;;38.85;27.92;;;6.90;96.70;;;;;;6210875;22;20403;-65
2023/12/20 20:51:22;;;;;;;43.75;28.92;;;6.90;96.70;;;;;;6213016;23;20024;-66
2023/12/20 20:54:04;;;;;;;40.40;28.80;;;6.90;96.70;;;;;;6213759;23;20020;-65
2023/12/20 20:56:46;;;;;;;44.00;29.85;;;6.90;96.70;;;;;;6190631;23;20032;-64
2023/12/20 20:59:47;;;;;;;;;;;;;;;;;;;;;
2023/12/20 21:02:48;;;;;;;43.22;29.83;;;6.90;96.70;;;;;;6091564;23;20097;-63
2023/12/20 21:06:02;;;;;;;44.50;30.08;;;6.80;96.70;;;;;;5978945;23;20047;-64
2023/12/20 21:17:59;;;;;;;41.25;28.10;;;6.70;96.70;;;;;;6092680;23;20106;-64
2023/12/20 21:28:35;;;;;;;;;;;;;;;;;;;;;
2023/12/20 21:31:07;;;;;;;35.20;24.42;;;6.50;96.70;;;;;;6067656;23;20049;-63
2023/12/20 21:34:25;;;;;;;59.88;35.35;;;6.50;96.70;;;;;;6144757;23;20543;-63
2023/12/20 21:37:50;;;;;;;;;;;;;;;;;;;;;
2023/12/20 21:41:51;;;;;;;108.68;61.90;;;6.10;96.70;;;;;;6077193;23;20531;-63
2023/12/20 21:44:23;;;;;;;71.63;41.53;;;6.10;96.70;;;;;;6118759;23;20026;-63
2023/12/20 21:53:11;;;;;;;;;;;;;;;;;;;;;
2023/12/20 22:03:22;;;;;;;44.88;30.30;;;6.10;96.70;;;;;;6096209;23;20014;-63
2023/12/20 22:15:30;;;;;;;43.53;28.77;;;6.10;96.70;;;;;;6120494;23;20073;-63
2023/12/20 22:19:14;;;;;;;46.55;29.60;;;6.10;96.70;;;;;;6122767;23;20069;-62
2023/12/20 22:21:46;;;;;;;41.53;27.65;;;6.10;96.70;;;;;;6143398;23;20339;-62
2023/12/20 22:24:53;;;;;;;44.15;29.77;;;6.10;96.70;;;;;;6225192;23;20078;-63
2023/12/20 22:27:27;;;;;;;44.95;29.38;;;6.10;96.70;;;;;;6215906;23;20024;-63
2023/12/20 22:31:00;;;;;;;39.97;26.95;;;6.00;96.70;;;;;;6119139;23;20118;-62
2023/12/20 22:38:26;;;;;;;39.25;26.05;;;6.00;96.70;;;;;;6004646;23;20088;-62
2023/12/20 22:41:10;;;;;;;;;;;;;;;;;;;;;
2023/12/20 22:44:47;;;;;;;;;;;;;;;;;;;;;
2023/12/20 22:47:18;;;;;;;34.13;24.13;;;5.80;96.70;;;;;;6065946;23;20102;-63
2023/12/20 22:49:52;;;;;;;33.38;23.30;;;5.80;96.70;;;;;;6066708;23;20062;-63
2023/12/20 22:52:30;;;;;;;31.53;21.50;;;5.80;96.70;;;;;;6191534;23;20399;-62
2023/12/20 22:59:27;;;;;;;25.63;18.60;;;5.80;96.70;;;;;;6149599;23;20128;-62
2023/12/20 23:02:34;;;;;;;26.38;19.63;;;5.90;96.70;;;;;;6095560;23;20036;-63
2023/12/20 23:09:49;;;;;;;23.75;17.20;;;5.70;96.70;;;;;;6150064;23;20028;-62
2023/12/20 23:12:21;;;;;;;26.77;16.75;;;5.70;96.70;;;;;;6100852;23;20531;-63
2023/12/20 23:14:54;;;;;;;24.10;17.10;;;5.80;96.70;;;;;;6101145;23;20101;-63
2023/12/20 23:17:24;;;;;;;22.98;16.33;;;5.70;96.70;;;;;;6124327;23;20025;-62
2023/12/20 23:19:54;;;;;;;20.00;15.25;;;5.60;96.70;;;;;;6178293;23;20020;-62
2023/12/20 23:22:23;;;;;;;21.50;15.52;;;5.60;96.70;;;;;;6191910;23;20083;-62
2023/12/20 23:24:53;;;;;;;19.95;16.10;;;5.60;96.70;;;;;;6216146;23;20382;-63
2023/12/20 23:29:20;;;;;;;24.40;17.10;;;5.50;96.70;;;;;;6060825;23;20159;-62
2023/12/20 23:32:02;;;;;;;21.63;16.25;;;5.50;96.70;;;;;;6142731;23;20116;-62
2023/12/20 23:35:13;;;;;;;22.38;15.27;;;5.50;96.70;;;;;;6033247;23;20085;-63
2023/12/20 23:38:20;;;;;;;20.27;14.57;;;5.50;96.70;;;;;;6010771;23;20095;-62
2023/12/20 23:40:50;;;;;;;20.55;15.00;;;5.60;96.70;;;;;;6009501;23;20027;-63
2023/12/20 23:44:03;;;;;;;23.65;16.48;;;5.50;96.70;;;;;;6029997;23;20111;-63
2023/12/20 23:47:34;;;;;;;19.77;14.32;;;5.50;96.70;;;;;;5989729;23;20060;-63
2023/12/20 23:50:04;;;;;;;19.85;14.27;;;5.40;96.70;;;;;;5985904;23;20031;-63
2023/12/20 23:52:34;;;;;;;22.55;15.65;;;5.30;96.70;;;;;;6009843;23;20027;-63
